Time;durP1;ratioP1;P1;durP2;ratioP2;P2;SDS_P1;SDS_P2;PMS_P1;PMS_P2;Temp;Humidity;BMP_temperature;BMP_pressure;BME280_temperature;BME280_humidity;BME280_pressure;Samples;Min_cycle;Max_cycle;Signal;HPM_P1;HPM_P2
2023/11/26 00:00:05;;;;;;;8.27;5.07;;;;;;;5.82;75.68;99597.13;5012620;28;20077;-75
2023/11/26 00:02:32;;;;;;;8.30;4.65;;;;;;;5.81;75.99;99588.47;4994945;28;20571;-75
2023/11/26 00:04:58;;;;;;;9.75;6.13;;;;;;;5.83;76.19;99591.03;5012359;28;20061;-79
2023/11/26 00:07:25;;;;;;;12.07;5.60;;;;;;;5.84;75.86;99588.31;5012543;28;20049;-75
2023/11/26 00:09:51;;;;;;;9.00;6.43;;;;;;;5.85;75.96;99590.03;5012207;28;20050;-75
2023/11/26 00:12:18;;;;;;;13.55;7.53;;;;;;;5.88;76.25;99594.28;4995000;28;20155;-75
2023/11/26 00:14:45;;;;;;;13.13;7.65;;;;;;;5.90;76.23;99591.63;5012448;28;20053;-77
2023/11/26 00:17:11;;;;;;;11.82;6.47;;;;;;;5.91;76.15;99582.88;5012384;28;20061;-75
2023/11/26 00:19:38;;;;;;;10.00;6.03;;;;;;;5.92;76.07;99589.78;5012373;28;20418;-77
2023/11/26 00:22:05;;;;;;;11.95;7.25;;;;;;;5.92;76.07;99602.84;5012246;28;20108;-77
2023/11/26 00:24:32;;;;;;;10.73;6.85;;;;;;;5.93;75.99;99599.31;5012218;28;20389;-77
2023/11/26 00:26:59;;;;;;;9.95;7.35;;;;;;;5.93;76.04;99600.19;4994747;28;20054;-77
2023/11/26 00:29:25;;;;;;;12.50;8.35;;;;;;;5.94;76.13;99598.44;5012148;28;20069;-76
2023/11/26 00:31:52;;;;;;;12.18;8.07;;;;;;;5.94;76.03;99606.25;5012083;28;20042;-77
2023/11/26 00:34:18;;;;;;;10.93;8.45;;;;;;;5.94;76.34;99601.88;5011808;28;20108;-75
2023/11/26 00:36:46;;;;;;;12.27;8.65;;;;;;;5.97;76.18;99603.50;4994459;28;20081;-76
2023/11/26 00:39:12;;;;;;;14.85;8.98;;;;;;;5.98;76.18;99594.78;5011683;28;20188;-75
2023/11/26 00:41:40;;;;;;;13.85;8.57;;;;;;;5.99;75.97;99601.69;5012033;28;20050;-75
2023/11/26 00:44:07;;;;;;;20.60;9.80;;;;;;;5.98;75.68;99603.44;4994149;28;20104;-76
2023/11/26 00:46:33;;;;;;;14.18;9.63;;;;;;;5.98;74.86;99600.00;5012028;28;20054;-74
2023/11/26 00:49:05;;;;;;;13.02;9.75;;;;;;;5.94;74.82;99599.25;5011923;28;20384;-74
2023/11/26 00:51:32;;;;;;;11.85;9.02;;;;;;;5.92;74.46;99605.47;5011723;28;20120;-76
2023/11/26 00:53:58;;;;;;;11.60;7.93;;;;;;;5.87;74.09;99603.88;4993762;28;20616;-75
2023/11/26 00:56:26;;;;;;;10.35;7.22;;;;;;;5.83;74.04;99606.69;4994059;28;20471;-75
2023/11/26 00:58:52;;;;;;;9.82;6.25;;;;;;;5.78;74.08;99604.25;4986327;28;20046;-76
2023/11/26 01:01:19;;;;;;;11.10;5.68;;;;;;;5.74;74.59;99610.50;5011354;28;20054;-76
2023/11/26 01:03:46;;;;;;;8.77;5.30;;;;;;;5.69;74.84;99610.69;5011104;28;20046;-75
2023/11/26 01:06:13;;;;;;;8.98;5.20;;;;;;;5.67;74.93;99607.28;5011261;28;20054;-74
2023/11/26 01:08:39;;;;;;;10.52;4.88;;;;;;;5.67;75.20;99609.03;5011270;28;20046;-74
2023/11/26 01:11:12;;;;;;;5.88;3.97;;;;;;;5.65;75.25;99605.66;5011394;28;20049;-75
2023/11/26 01:13:42;;;;;;;;;;;;;;;5.66;74.94;99605.59;5011622;28;20081;-77
2023/11/26 01:16:10;;;;;;;4.65;3.28;;;;;;;5.72;75.74;99604.50;5011119;28;19948;-76
2023/11/26 01:18:38;;;;;;;6.85;3.72;;;;;;;5.70;75.91;99599.34;5011133;28;20052;-76
2023/11/26 01:21:06;;;;;;;5.22;3.42;;;;;;;5.71;76.13;99598.44;5011225;28;20042;-75
2023/11/26 01:23:32;;;;;;;6.65;3.78;;;;;;;5.72;76.08;99600.13;4993566;28;20053;-78
2023/11/26 01:25:59;;;;;;;6.53;3.83;;;;;;;5.74;76.27;99600.06;5010931;28;20518;-76
2023/11/26 01:28:26;;;;;;;6.68;3.90;;;;;;;5.77;76.42;99599.09;5011145;28;20052;-77
2023/11/26 01:30:52;;;;;;;8.48;3.95;;;;;;;5.77;76.46;99599.94;5010894;28;20057;-75
2023/11/26 01:33:19;;;;;;;9.90;4.32;;;;;;;5.80;76.23;99598.97;5010618;28;20526;-76
2023/11/26 01:35:46;;;;;;;8.55;4.43;;;;;;;5.84;76.33;99604.00;4993456;28;20400;-78
2023/11/26 01:38:12;;;;;;;9.13;4.05;;;;;;;5.83;76.32;99599.69;4993242;28;20550;-75
2023/11/26 01:40:39;;;;;;;5.68;4.03;;;;;;;5.85;76.16;99597.03;5010952;28;20498;-75
2023/11/26 01:43:06;;;;;;;7.35;4.60;;;;;;;5.86;76.26;99589.13;4993106;28;20539;-76
2023/11/26 01:45:32;;;;;;;8.90;4.47;;;;;;;5.87;76.40;99592.59;4993396;28;20525;-78
2023/11/26 01:47:59;;;;;;;7.25;4.18;;;;;;;5.88;76.36;99586.47;5010789;28;20046;-78
2023/11/26 01:50:26;;;;;;;8.25;4.97;;;;;;;5.90;76.21;99583.78;5010999;28;20042;-74
2023/11/26 01:52:55;;;;;;;8.40;4.95;;;;;;;5.91;76.10;99588.09;5010509;28;20495;-76
2023/11/26 01:55:21;;;;;;;8.52;4.85;;;;;;;5.92;76.12;99587.16;4993196;28;20052;-76
2023/11/26 01:57:49;;;;;;;7.53;5.03;;;;;;;5.93;75.89;99588.88;4993105;28;20140;-76
2023/11/26 02:00:16;;;;;;;10.13;5.35;;;;;;;5.93;76.18;99581.88;5010435;28;20136;-77
2023/11/26 02:02:43;;;;;;;9.45;5.00;;;;;;;5.94;75.99;99587.97;5010856;28;20129;-77
2023/11/26 02:05:11;;;;;;;11.73;4.97;;;;;;;5.94;75.60;99588.81;5010526;28;20082;-75
2023/11/26 02:07:41;;;;;;;14.77;5.20;;;;;;;5.92;75.26;99595.00;5010652;28;20073;-76
2023/11/26 02:10:08;;;;;;;7.90;4.63;;;;;;;5.93;75.25;99591.47;4993007;28;20080;-76
2023/11/26 02:12:35;;;;;;;9.82;5.20;;;;;;;5.91;75.23;99591.53;4985083;28;20061;-74
2023/11/26 02:15:02;;;;;;;9.10;4.63;;;;;;;5.89;75.21;99590.75;5002762;28;20104;-75
2023/11/26 02:17:30;;;;;;;7.40;3.50;;;;;;;5.89;75.53;99600.34;5012103;28;20490;-75
2023/11/26 02:20:01;;;;;;;8.20;3.35;;;;;;;5.86;75.08;99596.09;5006729;28;20050;-75
2023/11/26 02:22:28;;;;;;;5.45;3.17;;;;;;;5.86;75.99;99596.97;4989356;28;20076;-76
2023/11/26 02:24:55;;;;;;;5.95;3.13;;;;;;;5.85;75.68;99600.50;4996646;28;20112;-77
2023/11/26 02:27:21;;;;;;;4.00;2.63;;;;;;;5.84;75.86;99597.94;5014300;28;20054;-76
2023/11/26 02:29:48;;;;;;;6.32;3.67;;;;;;;5.84;75.84;99598.78;5008648;28;20050;-75
2023/11/26 02:32:14;;;;;;;6.10;3.75;;;;;;;5.83;75.69;99597.06;5012567;28;20049;-75
2023/11/26 02:34:41;;;;;;;8.88;4.10;;;;;;;5.82;75.50;99597.13;5014087;28;20113;-76
2023/11/26 02:37:08;;;;;;;9.27;3.75;;;;;;;5.80;75.61;99602.41;5014076;28;20061;-76
2023/11/26 02:39:34;;;;;;;10.07;3.95;;;;;;;5.78;75.91;99600.78;5014067;28;20041;-78
2023/11/26 02:42:01;;;;;;;5.00;3.40;;;;;;;5.77;76.07;99593.84;5014050;28;20050;-75
2023/11/26 02:44:27;;;;;;;8.02;3.35;;;;;;;5.76;75.92;99593.03;5014025;28;20123;-78
2023/11/26 02:46:54;;;;;;;6.07;3.10;;;;;;;5.76;76.01;99594.78;5014356;28;20050;-76
2023/11/26 02:49:21;;;;;;;7.18;3.83;;;;;;;5.74;76.25;99587.00;4996318;28;20111;-76
2023/11/26 02:51:47;;;;;;;8.15;3.72;;;;;;;5.73;76.44;99582.69;5014016;28;20046;-76
2023/11/26 02:54:14;;;;;;;5.38;3.47;;;;;;;5.72;76.26;99578.38;5013547;28;20046;-75
2023/11/26 02:56:44;;;;;;;6.18;3.60;;;;;;;5.70;75.72;99578.44;5014156;28;20058;-75
2023/11/26 02:59:14;;;;;;;6.93;3.72;;;;;;;5.70;76.35;99569.75;5013630;28;20050;-77
2023/11/26 03:01:41;;;;;;;6.28;3.60;;;;;;;5.69;76.18;99578.50;5013925;28;20045;-77
2023/11/26 03:04:09;;;;;;;6.18;3.78;;;;;;;5.69;76.35;99574.13;5013737;28;20049;-76
2023/11/26 03:06:38;;;;;;;4.63;3.03;;;;;;;5.69;76.51;99573.28;5013795;28;20053;-75
2023/11/26 03:09:29;;;;;;;8.73;3.78;;;;;;;5.69;76.35;99575.88;5013627;28;20486;-75
2023/11/26 03:14:41;;;;;;;5.38;3.30;;;;;;;5.69;76.55;99573.28;5013584;28;20092;-76
2023/11/26 03:17:08;;;;;;;6.55;3.22;;;;;;;5.67;76.61;99570.72;4988218;28;20096;-78
2023/11/26 03:19:35;;;;;;;5.80;3.78;;;;;;;5.67;76.57;99570.72;5013764;28;20042;-76
2023/11/26 03:22:07;;;;;;;9.27;3.55;;;;;;;5.68;76.75;99584.66;5013637;28;20053;-75
2023/11/26 03:24:34;;;;;;;4.35;3.65;;;;;;;5.69;76.65;99586.34;4988109;28;20499;-75
2023/11/26 03:27:00;;;;;;;9.77;3.90;;;;;;;5.70;76.63;99588.03;5013459;28;20135;-75
2023/11/26 03:29:27;;;;;;;7.22;3.70;;;;;;;5.70;77.00;99583.66;5013050;28;20045;-76
2023/11/26 03:31:53;;;;;;;4.47;3.30;;;;;;;5.72;76.81;99584.44;4995940;28;20054;-76
2023/11/26 03:34:20;;;;;;;6.22;3.10;;;;;;;5.75;76.96;99593.91;5013163;28;20049;-76
2023/11/26 03:36:46;;;;;;;8.10;3.45;;;;;;;5.77;76.79;99589.50;4995994;28;20041;-75
2023/11/26 03:39:13;;;;;;;4.57;3.00;;;;;;;5.78;77.01;99593.81;4987897;28;20117;-77
2023/11/26 03:41:40;;;;;;;6.55;3.40;;;;;;;5.81;76.80;99601.53;5013178;28;20108;-76
2023/11/26 03:44:06;;;;;;;5.18;3.00;;;;;;;5.82;76.63;99592.78;5012983;28;20490;-75
2023/11/26 03:46:33;;;;;;;4.22;2.90;;;;;;;5.84;76.60;99597.94;4995611;28;20064;-76
2023/11/26 03:48:59;;;;;;;7.25;3.30;;;;;;;5.85;76.44;99595.28;4997315;28;20073;-75
2023/11/26 03:51:28;;;;;;;5.43;3.17;;;;;;;5.86;76.65;99596.97;4995531;28;20136;-78
2023/11/26 03:53:54;;;;;;;6.00;3.33;;;;;;;5.86;76.37;99596.97;5012792;28;20085;-77
2023/11/26 03:56:21;;;;;;;5.20;3.00;;;;;;;5.89;76.64;99592.50;5012852;28;20084;-75
2023/11/26 03:58:48;;;;;;;4.45;2.90;;;;;;;5.89;76.67;99590.75;5012845;28;20037;-74
2023/11/26 04:01:14;;;;;;;7.13;3.38;;;;;;;5.90;76.19;99591.63;4995209;28;20069;-76
2023/11/26 04:03:41;;;;;;;5.95;3.28;;;;;;;5.88;76.04;99589.06;4995284;28;20483;-76
2023/11/26 04:06:08;;;;;;;4.63;2.92;;;;;;;5.87;76.07;99590.81;4995272;28;20100;-76
2023/11/26 04:08:34;;;;;;;9.18;3.10;;;;;;;5.87;76.58;99587.38;5012742;28;20439;-75
2023/11/26 04:11:01;;;;;;;3.85;2.72;;;;;;;5.87;76.60;99588.22;5012598;28;20065;-77
2023/11/26 04:13:28;;;;;;;11.93;3.80;;;;;;;5.86;76.31;99590.88;5012488;28;20064;-76
2023/11/26 04:15:57;;;;;;;6.45;2.92;;;;;;;5.85;76.51;99590.03;5012330;28;20590;-74
2023/11/26 04:18:27;;;;;;;5.80;3.05;;;;;;;5.83;75.91;99591.84;5012402;28;20058;-74
2023/11/26 04:20:55;;;;;;;4.03;2.92;;;;;;;5.86;76.34;99588.25;5012527;28;20053;-75
2023/11/26 04:23:22;;;;;;;3.63;2.47;;;;;;;5.85;76.35;99597.88;5012224;28;20061;-75
2023/11/26 04:25:50;;;;;;;6.43;2.97;;;;;;;5.85;76.50;99592.66;5012365;28;20081;-74
2023/11/26 04:28:16;;;;;;;6.00;2.55;;;;;;;5.86;76.41;99596.97;5012388;28;20144;-76
2023/11/26 04:30:43;;;;;;;7.28;3.13;;;;;;;5.84;76.20;99588.31;5012427;28;20078;-76
2023/11/26 04:33:10;;;;;;;7.43;3.28;;;;;;;5.85;76.30;99587.44;4994523;28;20112;-77
2023/11/26 04:35:37;;;;;;;5.22;3.13;;;;;;;5.84;76.49;99590.94;4994486;28;20038;-81
2023/11/26 04:38:04;;;;;;;4.78;2.90;;;;;;;5.84;76.19;99584.88;4988128;28;20133;-78
2023/11/26 04:40:30;;;;;;;4.18;2.70;;;;;;;5.83;76.53;99584.00;5010203;28;20050;-75
2023/11/26 04:42:57;;;;;;;5.68;2.65;;;;;;;5.83;76.63;99591.84;5012079;28;20073;-81
2023/11/26 04:45:23;;;;;;;6.97;2.92;;;;;;;5.85;76.50;99589.19;5011888;28;20058;-76
2023/11/26 04:47:50;;;;;;;6.60;3.22;;;;;;;5.84;76.43;99584.88;5012064;28;20049;-74
2023/11/26 04:50:18;;;;;;;5.88;2.85;;;;;;;5.85;76.50;99579.59;4986636;28;20054;-75
2023/11/26 04:52:45;;;;;;;5.10;2.50;;;;;;;5.85;76.45;99587.44;4994398;28;20054;-76
2023/11/26 04:55:12;;;;;;;6.80;2.38;;;;;;;5.86;76.57;99576.06;5011526;28;20084;-75
2023/11/26 04:57:39;;;;;;;4.70;2.83;;;;;;;5.87;76.58;99582.97;5011933;28;20089;-75
2023/11/26 05:00:06;;;;;;;5.40;2.70;;;;;;;5.87;76.68;99576.94;5011843;28;20096;-75
2023/11/26 05:02:33;;;;;;;8.18;2.40;;;;;;;5.87;76.96;99577.75;5011556;28;20446;-76
2023/11/26 05:05:00;;;;;;;5.30;2.50;;;;;;;5.88;76.60;99578.63;4986120;28;20064;-77
2023/11/26 05:07:28;;;;;;;4.45;2.47;;;;;;;5.92;76.69;99581.94;5011427;28;20140;-75
2023/11/26 05:09:55;;;;;;;7.43;2.60;;;;;;;5.91;76.95;99582.88;5011498;28;20053;-74
2023/11/26 05:12:21;;;;;;;10.77;2.75;;;;;;;5.94;76.86;99577.53;5011566;28;20078;-76
2023/11/26 05:14:48;;;;;;;7.22;2.42;;;;;;;5.94;76.37;99578.34;5011360;28;20037;-77
2023/11/26 05:17:15;;;;;;;8.60;2.20;;;;;;;5.97;77.07;99577.38;5011412;28;20061;-75
2023/11/26 05:19:42;;;;;;;6.60;2.50;;;;;;;5.99;76.96;99586.03;5011305;28;20042;-75
2023/11/26 05:22:10;;;;;;;4.38;2.03;;;;;;;6.01;76.81;99578.97;4993882;28;20049;-76
2023/11/26 05:24:37;;;;;;;5.30;2.22;;;;;;;6.03;77.05;99576.28;4993739;28;20407;-77
2023/11/26 05:27:04;;;;;;;8.70;3.13;;;;;;;6.04;77.08;99584.09;4993793;28;20081;-76
2023/11/26 05:29:31;;;;;;;4.10;2.03;;;;;;;6.07;77.07;99588.34;5011270;28;20053;-75
2023/11/26 05:31:58;;;;;;;4.95;2.42;;;;;;;6.10;76.77;99588.22;5011111;28;20050;-74
2023/11/26 05:34:25;;;;;;;5.88;1.90;;;;;;;6.11;76.98;99582.94;5010895;28;20089;-76
2023/11/26 05:36:52;;;;;;;3.45;1.77;;;;;;;6.15;77.09;99582.78;5011123;28;20056;-75
2023/11/26 05:39:19;;;;;;;6.45;2.10;;;;;;;6.16;76.80;99577.50;5011163;28;20509;-74
2023/11/26 05:41:46;;;;;;;4.35;1.80;;;;;;;6.19;76.84;99581.75;5011264;28;20436;-76
2023/11/26 05:44:12;;;;;;;8.55;2.22;;;;;;;6.19;76.76;99581.75;5011087;28;20054;-77
2023/11/26 05:46:43;;;;;;;10.70;2.53;;;;;;;6.19;76.08;99574.78;4993447;28;20068;-78
2023/11/26 05:49:09;;;;;;;6.88;2.28;;;;;;;6.20;76.49;99576.47;5011123;28;20068;-74
2023/11/26 05:51:36;;;;;;;6.35;2.33;;;;;;;6.21;76.72;99582.56;5011091;28;20050;-75
2023/11/26 05:54:03;;;;;;;10.82;2.42;;;;;;;6.22;76.69;99579.03;5010807;28;20124;-74
2023/11/26 05:56:29;;;;;;;5.30;2.45;;;;;;;6.22;76.66;99582.50;5010836;28;20494;-77
2023/11/26 05:58:56;;;;;;;7.35;2.80;;;;;;;6.23;76.54;99583.31;4993542;28;20060;-76
2023/11/26 06:01:23;;;;;;;5.45;2.35;;;;;;;6.22;76.58;99579.88;5010477;28;20060;-76
2023/11/26 06:03:51;;;;;;;6.90;2.85;;;;;;;6.23;76.19;99578.09;4993188;28;20054;-75
2023/11/26 06:06:17;;;;;;;10.95;3.10;;;;;;;6.22;76.29;99579.88;4993519;28;20081;-77
2023/11/26 06:08:44;;;;;;;9.23;2.90;;;;;;;6.22;76.03;99579.03;5010911;28;20041;-77
2023/11/26 06:11:11;;;;;;;9.00;2.72;;;;;;;6.21;76.20;99577.31;5010823;28;20143;-74
2023/11/26 06:13:37;;;;;;;6.40;2.92;;;;;;;6.19;76.26;99576.53;5010349;28;20089;-75
2023/11/26 06:16:05;;;;;;;9.30;3.22;;;;;;;6.17;76.41;99573.13;5010710;28;20558;-77
2023/11/26 06:18:32;;;;;;;9.57;3.40;;;;;;;6.18;76.23;99574.84;5010551;28;20053;-77
2023/11/26 06:20:58;;;;;;;8.35;2.67;;;;;;;6.15;76.27;99575.81;5003035;28;20054;-75
2023/11/26 06:23:25;;;;;;;6.88;2.80;;;;;;;6.15;76.25;99572.34;5010650;28;20058;-77
2023/11/26 06:25:52;;;;;;;5.65;2.45;;;;;;;6.14;76.63;99568.91;4993213;28;20082;-76
2023/11/26 06:28:18;;;;;;;6.63;2.90;;;;;;;6.13;76.33;99570.66;5010635;28;20133;-74
2023/11/26 06:30:45;;;;;;;5.10;2.58;;;;;;;6.13;76.64;99573.25;4992947;28;20463;-76
2023/11/26 06:33:12;;;;;;;8.43;2.78;;;;;;;6.12;76.49;99565.47;5002524;28;20060;-76
2023/11/26 06:35:39;;;;;;;10.82;3.13;;;;;;;6.12;76.39;99566.34;5010389;28;20046;-75
2023/11/26 06:38:05;;;;;;;6.97;3.00;;;;;;;6.10;76.31;99565.53;5010518;28;20101;-76
2023/11/26 06:40:32;;;;;;;7.35;3.00;;;;;;;6.10;76.31;99562.94;5010474;28;20082;-74
2023/11/26 06:42:58;;;;;;;8.27;2.75;;;;;;;6.10;76.56;99562.09;5010265;28;20077;-78
2023/11/26 06:45:26;;;;;;;6.28;3.13;;;;;;;6.09;76.57;99556.00;5001703;28;20077;-74
2023/11/26 06:47:53;;;;;;;9.52;3.97;;;;;;;6.10;76.26;99560.31;5002267;28;20044;-74
2023/11/26 06:50:20;;;;;;;5.13;2.72;;;;;;;6.09;76.59;99560.41;5010632;28;20108;-76
2023/11/26 06:52:47;;;;;;;7.13;2.80;;;;;;;6.09;76.33;99563.84;5010439;28;20129;-77
2023/11/26 06:55:14;;;;;;;7.95;3.08;;;;;;;6.07;76.51;99557.84;5002251;28;20525;-74
2023/11/26 06:57:41;;;;;;;8.07;3.20;;;;;;;6.08;76.63;99551.69;5009968;28;20472;-75
2023/11/26 07:00:09;;;;;;;6.68;2.50;;;;;;;6.09;76.83;99563.84;5010180;28;20096;-75
2023/11/26 07:02:35;;;;;;;7.63;2.78;;;;;;;6.08;76.73;99561.28;5010397;28;20050;-73
2023/11/26 07:05:04;;;;;;;4.50;3.08;;;;;;;6.09;76.56;99563.84;5013415;28;20062;-75
2023/11/26 07:07:30;;;;;;;12.20;2.78;;;;;;;6.08;76.68;99556.94;4996308;28;20502;-76
2023/11/26 07:09:57;;;;;;;7.38;3.30;;;;;;;6.07;76.36;99568.31;4996256;28;20515;-76
2023/11/26 07:12:26;;;;;;;7.30;2.75;;;;;;;6.08;76.65;99561.28;4996164;28;20085;-76
2023/11/26 07:14:54;;;;;;;6.53;3.03;;;;;;;6.10;76.65;99564.72;5013544;28;20072;-76
2023/11/26 07:17:22;;;;;;;4.28;2.72;;;;;;;6.09;76.69;99561.22;5013653;28;20093;-77
2023/11/26 07:19:49;;;;;;;8.93;3.20;;;;;;;6.10;76.91;99572.56;5013439;28;20136;-75
2023/11/26 07:22:16;;;;;;;7.25;3.05;;;;;;;6.09;76.63;99569.06;4996217;28;20068;-76
2023/11/26 07:24:42;;;;;;;8.15;2.80;;;;;;;6.09;77.03;99574.31;5013352;28;20053;-75
2023/11/26 07:27:09;;;;;;;10.23;3.22;;;;;;;6.10;76.98;99568.16;5013453;28;20050;-74
2023/11/26 07:29:36;;;;;;;10.63;3.45;;;;;;;6.10;77.07;99568.16;5013532;28;20052;-75
2023/11/26 07:32:03;;;;;;;9.95;3.42;;;;;;;6.11;77.06;99575.09;5013338;28;20104;-75
2023/11/26 07:34:29;;;;;;;6.63;3.72;;;;;;;6.11;77.04;99575.09;4987620;28;20056;-76
2023/11/26 07:36:56;;;;;;;5.30;3.13;;;;;;;6.12;77.15;99576.78;5013553;28;20141;-76
2023/11/26 07:39:23;;;;;;;7.32;3.20;;;;;;;6.13;76.97;99577.63;5013186;28;20558;-76
2023/11/26 07:41:49;;;;;;;11.38;3.60;;;;;;;6.14;77.07;99581.97;5013066;28;20072;-77
2023/11/26 07:44:16;;;;;;;11.60;3.30;;;;;;;6.15;77.15;99574.94;5013226;28;20204;-76
2023/11/26 07:46:43;;;;;;;6.38;3.10;;;;;;;6.15;76.91;99567.97;5013318;28;20058;-74
2023/11/26 07:49:09;;;;;;;9.98;3.70;;;;;;;6.16;77.25;99566.22;5012863;28;20450;-77
2023/11/26 07:51:39;;;;;;;9.18;3.45;;;;;;;6.15;76.61;99559.28;4987538;28;20057;-76
2023/11/26 07:54:06;;;;;;;13.43;3.90;;;;;;;6.17;76.75;99570.53;5012773;28;20100;-76
2023/11/26 07:56:41;;;;;;;9.23;3.42;;;;;;;6.15;77.25;99564.50;4988824;28;20066;-77
2023/11/26 07:59:08;;;;;;;10.75;3.80;;;;;;;6.15;76.97;99561.88;5013266;28;20050;-75
2023/11/26 08:01:34;;;;;;;12.13;3.70;;;;;;;6.15;77.40;99564.50;5012586;28;20046;-74
2023/11/26 08:04:02;;;;;;;7.28;3.45;;;;;;;6.15;77.27;99569.72;5001299;28;20055;-77
2023/11/26 08:06:29;;;;;;;8.55;3.60;;;;;;;6.16;77.41;99577.50;5009189;28;20042;-74
2023/11/26 08:09:01;;;;;;;10.93;3.80;;;;;;;6.18;77.29;99569.59;4994925;28;20050;-79
2023/11/26 08:11:33;;;;;;;10.32;3.88;;;;;;;6.19;77.46;99572.16;4996054;28;20050;-74
2023/11/26 08:14:03;;;;;;;11.10;3.58;;;;;;;6.21;77.49;99575.53;5004144;28;20046;-74
2023/11/26 08:16:30;;;;;;;7.82;3.88;;;;;;;6.23;77.65;99578.09;5012186;28;20053;-79
2023/11/26 08:19:01;;;;;;;11.70;4.22;;;;;;;6.23;77.45;99578.97;5012431;28;20054;-73
2023/11/26 08:21:32;;;;;;;8.15;4.18;;;;;;;6.24;77.63;99588.50;5012239;28;20128;-77
2023/11/26 08:24:01;;;;;;;11.07;4.03;;;;;;;6.27;77.42;99577.06;5012406;28;20050;-78
2023/11/26 08:26:32;;;;;;;11.52;4.20;;;;;;;6.28;77.30;99580.53;5012411;28;20133;-75
2023/11/26 08:28:59;;;;;;;12.65;4.03;;;;;;;6.30;77.51;99576.06;4994653;28;20049;-76
2023/11/26 08:31:27;;;;;;;6.93;3.67;;;;;;;6.32;77.69;99577.72;4994543;28;20076;-76
2023/11/26 08:33:55;;;;;;;8.93;3.97;;;;;;;6.34;77.59;99586.34;5011875;28;20062;-77
2023/11/26 08:36:23;;;;;;;9.85;3.88;;;;;;;6.36;77.41;99568.81;5012294;28;20046;-76
2023/11/26 08:38:50;;;;;;;8.35;3.65;;;;;;;6.38;77.58;99577.47;5012116;28;20064;-77
2023/11/26 08:41:21;;;;;;;10.45;4.60;;;;;;;6.41;77.26;99573.88;5012150;28;20045;-77
2023/11/26 08:43:50;;;;;;;11.40;3.67;;;;;;;6.42;77.36;99572.94;5011835;28;20511;-77
2023/11/26 08:46:20;;;;;;;13.27;4.30;;;;;;;6.43;77.49;99569.41;5011943;28;20053;-76
2023/11/26 08:48:48;;;;;;;7.60;4.15;;;;;;;6.44;77.29;99563.28;5011823;28;20064;-77
2023/11/26 08:51:14;;;;;;;11.18;4.43;;;;;;;6.47;77.37;99572.75;5004359;28;20491;-75
2023/11/26 08:53:42;;;;;;;10.68;4.20;;;;;;;6.47;77.50;99565.75;5011729;28;20083;-75
2023/11/26 08:56:09;;;;;;;9.80;5.05;;;;;;;6.48;77.58;99562.25;5011804;28;20050;-75
2023/11/26 08:58:36;;;;;;;16.88;4.75;;;;;;;6.51;77.42;99567.31;4994173;28;20053;-77
2023/11/26 09:01:05;;;;;;;9.27;4.03;;;;;;;6.53;77.59;99572.47;4994054;28;20049;-77
2023/11/26 09:03:32;;;;;;;9.48;4.35;;;;;;;6.56;77.32;99566.25;5011676;28;20113;-78
2023/11/26 09:05:59;;;;;;;12.98;4.28;;;;;;;6.58;77.20;99561.84;4986168;28;20054;-77
2023/11/26 09:08:25;;;;;;;11.43;3.88;;;;;;;6.60;77.02;99554.75;5011498;28;20053;-77
2023/11/26 09:10:52;;;;;;;12.93;4.25;;;;;;;6.60;76.93;99560.84;4993935;28;20105;-79
2023/11/26 09:13:19;;;;;;;10.25;3.85;;;;;;;6.58;76.73;99554.81;4993669;28;20537;-75
2023/11/26 09:15:46;;;;;;;12.48;4.95;;;;;;;6.58;76.60;99546.97;5011312;28;20650;-77
2023/11/26 09:18:13;;;;;;;13.25;3.78;;;;;;;6.58;76.74;99552.19;5011612;28;20053;-77
2023/11/26 09:20:41;;;;;;;12.02;4.25;;;;;;;6.59;76.75;99547.84;5011472;28;20049;-75
2023/11/26 09:23:07;;;;;;;11.57;4.32;;;;;;;6.58;76.95;99551.38;5003489;28;20549;-77
2023/11/26 09:25:34;;;;;;;14.15;4.95;;;;;;;6.58;76.70;99551.38;5010950;28;20057;-77
2023/11/26 09:28:01;;;;;;;15.77;4.05;;;;;;;6.58;77.07;99546.97;5010987;28;20077;-76
2023/11/26 09:30:27;;;;;;;9.80;4.43;;;;;;;6.59;77.39;99558.28;5011221;28;20411;-77
2023/11/26 09:32:54;;;;;;;10.18;4.18;;;;;;;6.61;77.93;99562.53;5011011;28;20145;-76
2023/11/26 09:35:21;;;;;;;9.82;4.28;;;;;;;6.64;78.53;99556.31;5011303;28;20654;-77
2023/11/26 09:37:48;;;;;;;8.00;3.70;;;;;;;6.69;78.65;99556.97;5011068;28;20121;-77
2023/11/26 09:40:15;;;;;;;9.57;4.03;;;;;;;6.76;78.58;99560.16;5011131;28;20120;-74
2023/11/26 09:42:49;;;;;;;12.32;4.28;;;;;;;6.80;77.20;99566.13;5003224;28;20462;-77
2023/11/26 09:45:18;;;;;;;11.98;3.63;;;;;;;6.87;77.98;99559.69;5004584;28;20092;-78
2023/11/26 09:47:45;;;;;;;9.13;4.00;;;;;;;6.90;77.83;99562.16;5011125;28;20046;-78
2023/11/26 09:50:13;;;;;;;9.93;3.53;;;;;;;6.95;78.21;99559.34;4993564;28;20057;-76
2023/11/26 09:52:41;;;;;;;7.65;3.50;;;;;;;7.00;78.37;99562.59;4993435;28;20061;-78
2023/11/26 09:55:08;;;;;;;7.70;3.85;;;;;;;7.06;78.85;99567.53;5010652;28;20038;-76
2023/11/26 09:57:37;;;;;;;12.50;3.72;;;;;;;7.13;78.84;99563.75;5003018;28;20092;-78
2023/11/26 10:00:06;;;;;;;10.63;3.47;;;;;;;7.23;79.20;99563.31;5011132;28;20044;-77
2023/11/26 10:02:32;;;;;;;12.38;3.42;;;;;;;7.32;79.28;99562.06;4993413;28;20466;-79
2023/11/26 10:05:00;;;;;;;13.15;3.63;;;;;;;7.41;79.54;99561.63;5008630;28;20046;-75
2023/11/26 10:07:37;;;;;;;9.95;3.90;;;;;;;7.50;77.96;99560.31;4999337;28;20046;-76
2023/11/26 10:10:09;;;;;;;12.15;3.63;;;;;;;7.61;78.77;99557.19;5009652;28;20081;-75
2023/11/26 10:12:55;;;;;;;7.80;3.50;;;;;;;7.66;77.17;99552.56;5011008;28;20148;-76
2023/11/26 10:15:24;;;;;;;10.13;3.15;;;;;;;7.76;78.12;99545.13;4993214;28;20146;-77
2023/11/26 10:18:05;;;;;;;10.52;3.20;;;;;;;7.79;76.48;99556.31;5010458;28;20049;-77
2023/11/26 10:20:43;;;;;;;9.82;3.03;;;;;;;7.83;76.05;99551.75;5010660;28;20059;-77
2023/11/26 10:23:10;;;;;;;13.20;3.25;;;;;;;7.89;77.85;99548.00;5010352;28;20167;-74
2023/11/26 10:25:44;;;;;;;8.80;3.45;;;;;;;7.90;76.56;99547.06;5010640;28;20060;-77
2023/11/26 10:28:15;;;;;;;8.48;3.15;;;;;;;7.92;76.61;99559.16;4992826;28;20446;-75
2023/11/26 10:30:43;;;;;;;6.10;3.03;;;;;;;7.97;77.47;99558.09;5010440;28;20097;-76
2023/11/26 10:33:11;;;;;;;8.65;2.85;;;;;;;7.98;77.23;99555.41;5010438;28;20050;-75
2023/11/26 10:35:55;;;;;;;9.85;3.15;;;;;;;8.00;76.65;99557.94;5010574;28;20406;-75
2023/11/26 10:38:27;;;;;;;9.07;3.55;;;;;;;8.06;78.19;99555.88;5005496;28;20077;-79
2023/11/26 10:40:56;;;;;;;10.20;3.20;;;;;;;8.14;78.44;99555.47;5014162;28;20116;-77
2023/11/26 10:43:23;;;;;;;8.55;3.13;;;;;;;8.23;78.52;99558.56;4996688;28;20041;-75
2023/11/26 10:45:50;;;;;;;8.07;2.97;;;;;;;8.30;78.46;99552.94;5014382;28;20046;-78
2023/11/26 10:48:18;;;;;;;7.45;2.72;;;;;;;8.38;78.31;99547.31;5014310;28;20141;-77
2023/11/26 10:51:07;;;;;;;9.50;2.70;;;;;;;8.46;78.26;99550.34;5014194;28;20045;-73
2023/11/26 10:54:05;;;;;;;11.60;3.42;;;;;;;8.51;76.41;99558.00;5009990;28;20049;-76
2023/11/26 10:56:37;;;;;;;7.07;2.80;;;;;;;8.59;76.99;99545.38;5013949;28;20092;-79
2023/11/26 10:59:07;;;;;;;10.07;2.40;;;;;;;8.67;77.34;99541.50;5013776;28;20046;-74
2023/11/26 11:01:37;;;;;;;10.00;2.58;;;;;;;8.72;76.95;99542.94;4996306;28;20390;-74
2023/11/26 11:04:14;;;;;;;7.65;2.42;;;;;;;8.80;76.82;99550.44;5005754;28;20514;-77
2023/11/26 11:06:44;;;;;;;5.03;2.00;;;;;;;8.90;78.85;99550.75;4996568;28;20046;-80
2023/11/26 11:09:21;;;;;;;9.25;3.00;;;;;;;9.01;78.89;99533.59;4996009;28;20559;-79
2023/11/26 11:11:59;;;;;;;8.48;2.55;;;;;;;9.20;79.77;99528.19;4996241;28;20148;-77
2023/11/26 11:14:27;;;;;;;6.22;2.20;;;;;;;9.45;82.12;99534.69;5013702;28;20486;-74
2023/11/26 11:16:54;;;;;;;4.22;1.73;;;;;;;9.67;81.53;99536.97;4995971;28;20490;-77
2023/11/26 11:19:55;;;;;;;10.07;2.25;;;;;;;9.87;76.40;99537.63;5013451;28;20483;-74
2023/11/26 11:22:33;;;;;;;5.88;2.00;;;;;;;10.03;75.08;99537.56;5006306;28;20050;-75
2023/11/26 11:25:10;;;;;;;14.27;2.95;;;;;;;10.07;73.67;99528.56;5013291;28;20050;-77
2023/11/26 11:27:58;;;;;;;7.28;2.10;;;;;;;10.06;73.26;99537.41;5013192;28;20482;-77
2023/11/26 11:30:31;;;;;;;7.90;1.88;;;;;;;10.06;73.55;99534.78;4991450;28;20392;-77
2023/11/26 11:33:07;;;;;;;6.78;1.92;;;;;;;10.00;73.26;99525.44;5010546;28;20054;-77
2023/11/26 11:35:41;;;;;;;8.80;2.13;;;;;;;9.97;73.24;99528.25;5013319;28;20048;-74
2023/11/26 11:38:12;;;;;;;12.02;2.33;;;;;;;9.93;74.66;99529.38;5013192;28;20042;-75
2023/11/26 11:40:58;;;;;;;9.77;2.20;;;;;;;9.82;72.20;99530.00;5013159;28;20053;-78
2023/11/26 11:43:27;;;;;;;10.80;2.55;;;;;;;9.81;74.28;99530.94;4995284;28;20092;-76
2023/11/26 11:45:54;;;;;;;9.20;2.38;;;;;;;9.78;74.66;99534.59;5013129;28;20045;-77